Statistiken

Seite 110 von 241 |< · · [107] [108] [109] [110] [111] [112] [113] · · >|

Die Witze mit der höchsten Punktzahl

Nr. Witz Pkte. Bew. Aufr. Mails Kom. Datum
5451 Das NICHTS ist die totale Abwesenheit von ... 0.2683 41 1769 1 0 07.07.05 12:00
5452 Steht der Gärtner im Gemüse, hat er später grüne Füße. ... 0.2683 41 1764 0 0 07.07.05 12:00
5453 Alle sind wieder krank, auch hier bei uns: ... 0.2683 41 1752 1 0 07.07.05 12:00
5454 Alle Kinder haben noch Taschengeld, nur nicht ... 0.2683 41 1705 0 0 07.07.05 12:00
5455 Jetzt gibt es ein Schwulenmagazin auf RTL. ... 0.2683 41 1685 1 1 07.07.05 12:00
5456 Alle Kinder verließen das E-Werk, nur nicht ... 0.2683 41 1662 0 0 07.07.05 12:00
5457 Lieber eine lange Leitung, als einen Kurzen in der Hose. ... 0.2683 41 1521 0 0 07.07.05 12:00
5458 PONTIAC: Polizeiautos ohne neuen TÜV initiieren Autocrashs ... 0.2683 41 1495 0 0 07.07.05 12:00
5459 Gäste werden auf dem Klo nicht alt, lässt ... 0.2683 41 1452 0 0 07.07.05 12:00
5460 Wenn du hier hochguckst, pinkelst du dir auf den Schuh. ... 0.2683 41 1425 0 0 07.07.05 12:00
5461 Im Falle des Durchfalls ist Tempo wirklich alles. ... 0.2683 41 1315 0 0 07.07.05 12:00
5462 Fotze lecken das ist fein, doch es muss im ... 0.2682 343 16052 18 2 07.07.05 12:00
5463 Die drei Etappen des Erwachsenwerdens eines ... 0.2676 426 11335 28 25 07.07.05 12:00
5464 Wie lautet die enharmonische Verwechslung ... 0.2676 71 2809 2 2 07.07.05 12:00
5465 Warum ist in der Badewanne einer Blondine ... 0.2676 71 2011 2 0 07.07.05 12:00
5466 Das Wettrudern. Vor einiger Zeit verabredete ... 0.2675 157 3872 9 4 08.07.05 00:40
5467 Ein Waldorfschüler läuft Amok. Es sterben drei Bäume! ... 0.2674 86 2147 2 0 29.12.08 11:21
5468 Was war dein schönstes Erlebnis im Skiurlaub?" ... 0.2674 86 1820 1 0 07.07.05 12:00
5469 Was heißt Viagra auf wienerisch? - Würstelstand. ... 0.2673 101 2183 3 0 07.07.05 12:00
5470 "Papa, die Raketen die du mir zu Silvester ... 0.2672 408 14775 43 18 27.01.09 09:03
5471 Zwei Buben spielen mit zwei Hunden und versuchen, ... 0.2672 116 3090 6 0 13.07.06 00:38
5472 Was sagt eine Blondine, wenn ein Vogel seine ... 0.2672 116 2183 5 0 07.07.05 12:00
5473 "Hey, toller Benz, Mensch, wie hast du denn ... 0.2667 135 2542 3 2 07.07.05 12:00
5474 Ein Mantafahrer fährt rückwärts einen Berg ... 0.2667 105 3269 4 2 07.07.05 12:00
5475 Im französischen Feinschmeckerrestaurant: ... 0.2667 60 1844 1 0 07.07.05 12:00
5476 Er war Sportlehrer, aber sie kam schneller. ... 0.2667 60 1837 2 0 07.07.05 12:00
5477 Wie kann Mercedes die A-Klasse überhaupt ... 0.2667 60 1678 1 0 07.07.05 12:00
5478 Lieber arm dran, als Arm ab. ... 0.2667 45 2104 0 0 07.07.05 12:00
5479 Warum sind Manta-Fahrer seit August 1990 ... 0.2667 45 1906 0 0 07.07.05 12:00
5480 Wer schon die Übersicht verloren hat, sollte ... 0.2667 45 1890 0 1 07.07.05 12:00
5481 Für das große Chaos haben wir Computer. Die ... 0.2667 45 1880 0 0 07.07.05 12:00
5482 Alle Kinder bekommen ein Knöllchen, nur nicht ... 0.2667 45 1873 0 0 07.07.05 12:00
5483 Letze Worte des Computer-Freaks: "Hätte ich ... 0.2667 45 1813 0 0 07.07.05 12:00
5484 Woran erkennt man einen Mantafahrer in der ... 0.2667 45 1666 0 0 07.07.05 12:00
5485 Auf dem Mars gibt es Wasser und sehr viele ... 0.2667 45 1659 0 0 07.07.05 12:00
5486 Letze Worte von Tarzan: "Welcher Idiot hat ... 0.2667 45 1606 0 0 07.07.05 12:00
5487 Warum fahren Mantafahrer keinen Scirocco? ... 0.2667 45 1546 0 0 07.07.05 12:00
5488 Alle Kinder bremsten vor dem Bahndamm, nur ... 0.2667 45 1535 0 0 07.07.05 12:00
5489 FIAT: Flick ihn alle Tage ... 0.2667 45 1440 0 0 07.07.05 12:00
5490 In Winkeln ist gut pinkeln ... 0.2667 45 1304 0 0 07.07.05 12:00
5491 WEGA: Wieder ein Gerät ausgefallen ... 0.2667 45 1301 0 0 07.07.05 12:00
5492 AOK: Alle oder keiner ... 0.2667 45 1283 0 0 07.07.05 12:00
5493 Letze Worte der Prostituierten: "Ist der aber niedlich." ... 0.2667 45 1266 0 0 07.07.05 12:00
5494 Nudeltunker ... 0.2667 30 1450 0 0 07.07.05 12:00
5495 Lieber die Frau des Freundes kennen, als ... 0.2667 30 1354 0 0 07.07.05 12:00
5496 Lieber intim, als in petto. ... 0.2667 30 1293 0 0 07.07.05 12:00
5497 Lieber eine Mieze im Fond, als den Tiger im Tank. ... 0.2667 30 1256 0 0 07.07.05 12:00
5498 Bodenturner ... 0.2667 30 1248 0 0 07.07.05 12:00
5499 Orgasmusglauber ... 0.2667 30 1245 0 0 07.07.05 12:00
5500 Lieber eine Sauklaue, als einen Klumpfuss. ... 0.2667 30 1243 0 0 07.07.05 12:00

[Favoriten] [Punkte] [Bewertungen] [Aufrufe] [Mails] [Kommentare] [Datum]

Seite 110 von 241 |< · < · [1] [2] [3] [4] [5] [6] [7] [8] [9] [10] [11] [12] [13] [14] [15] [16] [17] [18] [19] [20] [21] [22] [23] [24] [25] [26] [27] [28] [29] [30] [31] [32] [33] [34] [35] [36] [37] [38] [39] [40] [41] [42] [43] [44] [45] [46] [47] [48] [49] [50] [51] [52] [53] [54] [55] [56] [57] [58] [59] [60] [61] [62] [63] [64] [65] [66] [67] [68] [69] [70] [71] [72] [73] [74] [75] [76] [77] [78] [79] [80] [81] [82] [83] [84] [85] [86] [87] [88] [89] [90] [91] [92] [93] [94] [95] [96] [97] [98] [99] [100] [101] [102] [103] [104] [105] [106] [107] [108] [109] [110] [111] [112] [113] [114] [115] [116] [117] [118] [119] [120] [121] [122] [123] [124] [125] [126] [127] [128] [129] [130] [131] [132] [133] [134] [135] [136] [137] [138] [139] [140] [141] [142] [143] [144] [145] [146] [147] [148] [149] [150] [151] [152] [153] [154] [155] [156] [157] [158] [159] [160] [161] [162] [163] [164] [165] [166] [167] [168] [169] [170] [171] [172] [173] [174] [175] [176] [177] [178] [179] [180] [181] [182] [183] [184] [185] [186] [187] [188] [189] [190] [191] [192] [193] [194] [195] [196] [197] [198] [199] [200] [201] [202] [203] [204] [205] [206] [207] [208] [209] [210] [211] [212] [213] [214] [215] [216] [217] [218] [219] [220] [221] [222] [223] [224] [225] [226] [227] [228] [229] [230] [231] [232] [233] [234] [235] [236] [237] [238] [239] [240] [241] · > · >|

Zuletzt gesucht

Buchtipps

Englisch lernen mit Witzen.
Angelika Feilhauer
Englisch lernen mit Witzen.
EUR 4,95
X-tra starke Kinderwitze.
Nikolaus Lenz
X-tra starke Kinderwitze.
EUR 5,95
"In Mathe war ich immer schlec
Albrecht Beutelspacher
"In Mathe war ich immer schlecht...". Be
EUR 14,00